Address 0x6d2a6d0b60f4fce625c77559d4333a7c589a3754

 
Txn Hash Method
Block
From
To
Value [Txn Fee]
0x425932506a7b5a71c0e74381f27a5fd07f3255941afbd9efbe0066a31898700aExecute Meta Tra...207163442021-10-28 20:57:104 mins ago0x6d2a6d0b60f4fce625c77559d4333a7c589a3754OUT 0x89aac1f5ccdd54dd8a09e5c858f19a665e4fa32b0 MATIC0.006853344
0x145b7bdd809126c4fab29a493928655a891489929df2d901fcd98b074471d9e8Execute Meta Tra...207160932021-10-28 20:44:1217 mins ago0x6d2a6d0b60f4fce625c77559d4333a7c589a3754OUT 0xa5f1ea7df861952863df2e8d1312f7305dabf2150 MATIC0.00334422
0xc3cf98d7d2c9a073acfdf1972726a43e40c8838a28c71d6f366730b35b3ef922Execute Meta Tra...207158822021-10-28 20:36:0825 mins ago0x6d2a6d0b60f4fce625c77559d4333a7c589a3754OUT 0x89aac1f5ccdd54dd8a09e5c858f19a665e4fa32b0 MATIC0.00642465
0x03506eaa219022396a8d8fa22b57a36167e31b73e782c65aa6fd86fde8a78435Execute Meta Tra...207156672021-10-28 20:27:1834 mins ago0x6d2a6d0b60f4fce625c77559d4333a7c589a3754OUT 0x89aac1f5ccdd54dd8a09e5c858f19a665e4fa32b0 MATIC0.00642501
0xc4c8eb1585db7a1e8b171d568eef7cd410f8d8a70976611ec51ae58eab114fadExecute Meta Tra...207153682021-10-28 20:14:1247 mins ago0x6d2a6d0b60f4fce625c77559d4333a7c589a3754OUT 0x89aac1f5ccdd54dd8a09e5c858f19a665e4fa32b0 MATIC0.00642429
0x95587bdeb166d51f25dbd42038b9c6388d8e297fb96e816cacf4222901acc510Execute Meta Tra...207147872021-10-28 19:52:051 hr 9 mins ago0x6d2a6d0b60f4fce625c77559d4333a7c589a3754OUT 0x89aac1f5ccdd54dd8a09e5c858f19a665e4fa32b0 MATIC0.006425031416
0x807753f310f394c9440f8c4d4717c2d5dc824acb307b95adefdc709138192ee6Execute Meta Tra...207144562021-10-28 19:40:141 hr 21 mins ago0x6d2a6d0b60f4fce625c77559d4333a7c589a3754OUT 0x89aac1f5ccdd54dd8a09e5c858f19a665e4fa32b0 MATIC0.009637515
0xce797bf286417591add191fea644c7e48f1b20110291f936a799cba4e064b93cForward Meta Tx207140102021-10-28 19:24:541 hr 36 mins ago0x6d2a6d0b60f4fce625c77559d4333a7c589a3754OUT 0x0babda04f62c549a09ef3313fe187f29c099ff3c0 MATIC0.00374733
0x869564def4bcb26f22b101d219eac99db0726c0c54d103e2d72a8c4972a911bbExecute Meta Tra...207136692021-10-28 19:08:561 hr 52 mins ago0x6d2a6d0b60f4fce625c77559d4333a7c589a3754OUT 0x89aac1f5ccdd54dd8a09e5c858f19a665e4fa32b0 MATIC0.009142093146
0x7d46d57c65d6554773b1cd15dce7d5827b030e84a1dd22e26503fbec175ff941Execute Meta Tra...207129862021-10-28 18:42:002 hrs 19 mins ago0x6d2a6d0b60f4fce625c77559d4333a7c589a3754OUT 0xa102072a4c07f06ec3b4900fdc4c7b80b6c574290 MATIC0.0269394
0x5756b8784e75257687a9268bab6186bdf3eebfe0741d86d42aa0af81420449b0Execute Meta Tra...207124062021-10-28 18:17:022 hrs 44 mins ago0x6d2a6d0b60f4fce625c77559d4333a7c589a3754OUT 0x1fdc5e69729eecf8e933c904e86faf7a8886f6610 MATIC0.009723021
0xdebdefdf141dbb0f7180ab6d8f5bfd3bc2b4b11c81d72c2b7fcf106563a7811dExecute Meta Tra...207120692021-10-28 18:04:422 hrs 57 mins ago0x6d2a6d0b60f4fce625c77559d4333a7c589a3754OUT 0x89aac1f5ccdd54dd8a09e5c858f19a665e4fa32b0 MATIC0.00642501
0x186588d71db50532550a15c0ae99abc29a4c87c7e1cf3f06399f111dc8d521afExecute Meta Tra...207117282021-10-28 17:50:483 hrs 11 mins ago0x6d2a6d0b60f4fce625c77559d4333a7c589a3754OUT 0x89aac1f5ccdd54dd8a09e5c858f19a665e4fa32b0 MATIC0.007067907
0x8463ac70ac2b8556f70e9cdaa17c60c2e89ffffd340db15cb31629c479ed69a7Execute Meta Tra...207114132021-10-28 17:37:333 hrs 24 mins ago0x6d2a6d0b60f4fce625c77559d4333a7c589a3754OUT 0xa5f1ea7df861952863df2e8d1312f7305dabf2150 MATIC0.00334494
0x2d46d191ef2181580f1eec9aeaeec6f166a3d465afbffdb82c8d3c71a3fcaccdExecute Meta Tra...207110572021-10-28 17:25:213 hrs 36 mins ago0x6d2a6d0b60f4fce625c77559d4333a7c589a3754OUT 0x89aac1f5ccdd54dd8a09e5c858f19a665e4fa32b0 MATIC0.00642537
0x85996cd169cb27c42c5bb1406ced8f12fd29e3d7a667202fdd1f04c5390d5f86Execute Meta Tra...207106642021-10-28 17:11:513 hrs 50 mins ago0x6d2a6d0b60f4fce625c77559d4333a7c589a3754OUT 0xbf79ce2fbd819e5abc2327563d02a200255b7cb30 MATIC0.003204811
0xf2a849d63be268a411dff43df5381b01366c33bd0439155b84601072d4b5ed72Execute Meta Tra...207103222021-10-28 17:00:034 hrs 1 min ago0x6d2a6d0b60f4fce625c77559d4333a7c589a3754OUT 0x89aac1f5ccdd54dd8a09e5c858f19a665e4fa32b0 MATIC0.008138346
0xb78aac4135de97ed1dc8569cd578e83b90d5113490188171a6081cdb267db67cExecute Meta Tra...207099822021-10-28 16:48:234 hrs 13 mins ago0x6d2a6d0b60f4fce625c77559d4333a7c589a3754OUT 0xa5f1ea7df861952863df2e8d1312f7305dabf2150 MATIC0.00334494
0xdc8c9702e5e7cde33538a5719fbae1a67787331a2c027586196fdad6ff3a8b94Forward Meta Tx207096422021-10-28 16:34:354 hrs 27 mins ago0x6d2a6d0b60f4fce625c77559d4333a7c589a3754OUT 0x0babda04f62c549a09ef3313fe187f29c099ff3c0 MATIC0.27972021
0xc5fd267c9a4dcbcfa9b2c8ebbd93d835057b201b75dc5544f6b27206cf2cf82bExecute Meta Tra...207092712021-10-28 16:21:094 hrs 40 mins ago0x6d2a6d0b60f4fce625c77559d4333a7c589a3754OUT 0x89aac1f5ccdd54dd8a09e5c858f19a665e4fa32b0 MATIC0.006639177
0xbb2f4e0775e82e28e020cf685b88af89195959d3ea713cc2fa1216138d52b89fExecute Meta Tra...207088752021-10-28 16:07:334 hrs 54 mins ago0x6d2a6d0b60f4fce625c77559d4333a7c589a3754OUT 0x7adbced399630dd11a97f2e2dc206911167071ae0 MATIC0.01080054
0x8ef0b3192464be2890641bb1808ac9c2c0582e6a1095112da34945f965d345f6Execute Meta Tra...207086902021-10-28 15:59:415 hrs 2 mins ago0x6d2a6d0b60f4fce625c77559d4333a7c589a3754OUT 0x89aac1f5ccdd54dd8a09e5c858f19a665e4fa32b0 MATIC0.03212325
0x80f0f7b99178c17b0a13bef69a2d9b32820d85b132d738c0f3d1190a307524a1Forward Meta Tx207081572021-10-28 15:40:255 hrs 21 mins ago0x6d2a6d0b60f4fce625c77559d4333a7c589a3754OUT 0x0babda04f62c549a09ef3313fe187f29c099ff3c0 MATIC0.0354636
0x7b091851c72e5bd43a0df15248a8452b32848525244fd04501e5aaa3e697f140Execute Meta Tra...207079042021-10-28 15:31:415 hrs 30 mins ago0x6d2a6d0b60f4fce625c77559d4333a7c589a3754OUT 0x89aac1f5ccdd54dd8a09e5c858f19a665e4fa32b0 MATIC0.0428334
0x19d3c06ad72500f3ede1b52767a48b3a1486133e69df6cdc43b3e03bde4cece6Execute Meta Tra...207073742021-10-28 15:13:225 hrs 48 mins ago0x6d2a6d0b60f4fce625c77559d4333a7c589a3754OUT 0xeda1f66f5c765ac16b4333c53f3f83f781d01c8b0 MATIC0.04498815168
[ Download CSV Export 
Parent Txn Hash Block From To Value
Loading

Contract Name:
0 MATIC

Compiler Version
0

Optimization Enabled:
0 MATIC

Other Settings:
-NA-
Block Transaction Gas Used Reward
Age Block Fee Address BC Fee Address Voting Power Jailed Incoming
Block Uncle Number Difficulty Gas Used Reward
Loading
Loading
Make sure to use the "Vote Down" button for any spammy posts, and the "Vote Up" for interesting conversations.